Time;durP1;ratioP1;P1;durP2;ratioP2;P2;SDS_P1;SDS_P2;PMS_P1;PMS_P2;Temp;Humidity;BMP_temperature;BMP_pressure;BME280_temperature;BME280_humidity;BME280_pressure;Samples;Min_cycle;Max_cycle;Signal;HPM_P1;HPM_P2
2021/11/21 00:02:22;;;;;;;30.93;27.83;;;8.40;1.00;9.70;100480.00;;;;5301456;23;20513;-77
2021/11/21 00:04:59;;;;;;;30.40;27.30;;;8.40;1.00;9.70;100146.00;;;;5008167;28;20451;-77
2021/11/21 00:07:32;;;;;;;30.90;27.47;;;8.50;1.00;9.60;100249.00;;;;4997761;28;20499;-78
2021/11/21 00:10:01;;;;;;;32.13;28.70;;;8.40;1.00;9.60;100490.00;;;;4976083;28;20447;-78
2021/11/21 00:12:30;;;;;;;30.87;27.83;;;8.40;1.00;9.60;100472.00;;;;4987685;28;20436;-77
2021/11/21 00:14:59;;;;;;;30.90;27.80;;;8.40;1.00;9.60;100305.00;;;;4980834;28;20444;-83
2021/11/21 00:17:28;;;;;;;31.70;28.47;;;8.40;1.00;9.70;100454.00;;;;4980463;28;20480;-79
2021/11/21 00:19:56;;;;;;;32.77;29.27;;;8.40;1.00;9.70;100440.00;;;;4976571;28;21367;-78
2021/11/21 00:22:25;;;;;;;31.70;28.50;;;8.50;1.00;9.70;100461.00;;;;4983013;28;20452;-79
2021/11/21 00:24:56;;;;;;;29.77;26.77;;;8.50;1.00;9.70;100411.00;;;;4978430;28;20452;-80
2021/11/21 00:27:24;;;;;;;29.93;26.97;;;8.50;1.00;9.70;100459.00;;;;4980324;28;21073;-76
2021/11/21 00:29:54;;;;;;;32.23;28.93;;;8.50;1.00;9.70;100446.00;;;;4978462;28;20451;-76
2021/11/21 00:32:23;;;;;;;31.20;28.00;;;8.40;1.00;9.60;100377.00;;;;4971595;28;20502;-79
2021/11/21 00:34:51;;;;;;;32.23;28.90;;;8.40;1.00;9.60;100434.00;;;;4978504;28;20455;-78
2021/11/21 00:37:20;;;;;;;30.00;27.00;;;8.40;1.00;9.50;100421.00;;;;4978319;28;20577;-78
2021/11/21 00:39:49;;;;;;;31.57;28.50;;;8.40;1.00;9.60;100431.00;;;;4986101;28;20928;-76
2021/11/21 00:42:19;;;;;;;33.07;29.47;;;8.40;1.00;9.60;100419.00;;;;4975132;28;20459;-78
2021/11/21 00:44:48;;;;;;;30.33;27.20;;;8.40;1.00;9.60;100316.00;;;;4975132;28;20456;-78
2021/11/21 00:47:17;;;;;;;30.60;27.40;;;8.40;1.00;9.70;100410.00;;;;4980289;28;20479;-77
2021/11/21 00:49:46;;;;;;;30.53;27.37;;;8.40;1.00;9.70;100394.00;;;;4990968;28;20466;-77
2021/11/21 00:52:15;;;;;;;32.40;29.10;;;8.40;1.00;9.50;100437.00;;;;4980894;28;20466;-77
2021/11/21 00:54:51;;;;;;;30.50;27.30;;;8.30;1.00;9.40;100419.00;;;;4978115;28;20451;-77
2021/11/21 00:57:21;;;;;;;29.63;26.47;;;8.30;1.00;9.40;100421.00;;;;4977575;28;20554;-77
2021/11/21 00:59:50;;;;;;;33.07;28.50;;;8.30;1.00;9.50;100408.00;;;;4970521;28;20550;-77
2021/11/21 01:02:23;;;;;;;31.80;28.40;;;8.30;1.00;9.50;100408.00;;;;4977050;28;20470;-79
2021/11/21 01:04:52;;;;;;;30.93;27.57;;;8.30;1.00;9.50;100420.00;;;;4977553;28;20542;-78
2021/11/21 01:07:24;;;;;;;31.30;28.10;;;8.30;1.00;9.50;100436.00;;;;4969602;28;20476;-76
2021/11/21 01:09:52;;;;;;;33.90;30.50;;;8.30;1.00;9.40;100383.00;;;;4980293;28;20543;-79
2021/11/21 01:12:22;;;;;;;31.20;28.00;;;8.30;1.00;9.40;100414.00;;;;4976787;28;21019;-78
2021/11/21 01:14:51;;;;;;;32.17;28.67;;;8.20;1.00;9.40;100410.00;;;;4978506;28;20499;-78
2021/11/21 01:17:19;;;;;;;34.93;28.20;;;8.20;1.00;9.50;100403.00;;;;4978268;28;20537;-77
2021/11/21 01:19:48;;;;;;;33.20;29.70;;;8.20;1.00;9.60;100410.00;;;;4986262;28;20502;-77
2021/11/21 01:22:17;;;;;;;34.50;27.83;;;8.30;1.00;9.50;100397.00;;;;4987857;28;20455;-77
2021/11/21 01:24:45;;;;;;;38.50;30.30;;;8.20;1.00;9.50;100405.00;;;;5004892;28;20515;-78
2021/11/21 01:27:14;;;;;;;35.93;30.40;;;8.20;1.00;9.50;100401.00;;;;4986046;28;20475;-78
2021/11/21 01:29:44;;;;;;;37.53;29.77;;;8.20;1.00;9.40;100408.00;;;;4985871;28;20458;-79
2021/11/21 01:32:15;;;;;;;35.80;31.10;;;8.20;1.00;9.20;100322.00;;;;4987707;28;20451;-76
2021/11/21 01:34:43;;;;;;;43.97;32.87;;;8.10;1.00;9.10;100392.00;;;;4988668;28;20445;-78
2021/11/21 01:37:12;;;;;;;41.27;32.07;;;8.00;1.00;9.10;100395.00;;;;4977610;28;20526;-77
2021/11/21 01:39:41;;;;;;;40.43;31.57;;;7.80;1.00;9.00;100385.00;;;;5004085;28;20458;-78
2021/11/21 01:42:10;;;;;;;42.13;34.03;;;7.90;1.00;9.00;100375.00;;;;4986920;28;20574;-77
2021/11/21 01:44:39;;;;;;;46.33;36.30;;;7.80;1.00;9.00;100387.00;;;;4991501;28;20807;-79
2021/11/21 01:47:11;;;;;;;45.67;35.60;;;7.80;1.00;8.90;100343.00;;;;4988857;28;20472;-77
2021/11/21 01:49:39;;;;;;;51.67;37.03;;;7.80;1.00;9.00;100365.00;;;;4991743;28;20451;-79
2021/11/21 01:52:08;;;;;;;44.90;36.23;;;7.80;1.00;8.90;100357.00;;;;4983854;28;20451;-76
2021/11/21 01:54:37;;;;;;;40.10;31.37;;;7.70;1.00;8.80;100323.00;;;;4978177;28;20514;-77
2021/11/21 01:57:06;;;;;;;46.00;35.53;;;7.70;1.00;8.70;100357.00;;;;4976614;28;20477;-78
2021/11/21 01:59:36;;;;;;;45.70;34.73;;;7.60;1.00;8.70;100319.00;;;;4969911;28;20964;-78
2021/11/21 02:02:05;;;;;;;51.53;37.13;;;7.50;1.00;8.60;100335.00;;;;4970861;28;20471;-77
2021/11/21 02:04:36;;;;;;;49.60;38.40;;;7.50;1.00;8.70;100349.00;;;;4970940;28;20459;-78
2021/11/21 02:07:05;;;;;;;48.53;36.23;;;7.50;1.00;8.80;100348.00;;;;4979808;28;20507;-78
2021/11/21 02:09:34;;;;;;;48.67;38.87;;;7.50;1.00;8.80;100339.00;;;;4977850;28;20443;-78
2021/11/21 02:12:02;;;;;;;45.63;35.23;;;7.60;1.00;8.80;100291.00;;;;4975923;28;20578;-77
2021/11/21 02:14:32;;;;;;;46.67;35.90;;;7.60;1.00;8.80;100322.00;;;;4970543;28;20467;-76
2021/11/21 02:17:01;;;;;;;41.00;32.57;;;7.60;1.00;8.70;100310.00;;;;4968274;28;20455;-75
2021/11/21 02:19:30;;;;;;;42.37;32.33;;;7.60;1.00;8.70;100299.00;;;;4971865;28;20456;-75
2021/11/21 02:22:00;;;;;;;42.70;32.70;;;7.50;1.00;8.60;100310.00;;;;4984572;28;20447;-76
2021/11/21 02:24:29;;;;;;;43.97;34.17;;;7.60;1.00;8.70;100310.00;;;;4991737;28;20742;-78
2021/11/21 02:26:58;;;;;;;38.10;30.40;;;7.60;1.00;8.70;100318.00;;;;4999903;28;20534;-79
2021/11/21 02:29:27;;;;;;;39.30;31.03;;;7.50;1.00;8.30;100304.00;;;;4991761;28;20472;-76
2021/11/21 02:31:55;;;;;;;40.20;30.17;;;7.50;1.00;8.60;100281.00;;;;4967700;28;20452;-75
2021/11/21 02:34:25;;;;;;;36.77;27.50;;;7.50;1.00;8.50;100258.00;;;;4963866;28;20490;-75
2021/11/21 02:36:53;;;;;;;38.03;30.03;;;7.40;1.00;8.50;100304.00;;;;4975114;28;20511;-76
2021/11/21 02:39:23;;;;;;;38.70;30.07;;;7.40;1.00;8.60;100298.00;;;;4968162;28;20523;-77
2021/11/21 02:41:52;;;;;;;35.70;29.30;;;7.30;1.00;8.50;100296.00;;;;4964145;28;20514;-77
2021/11/21 02:44:26;;;;;;;38.47;30.70;;;7.40;1.00;8.50;100252.00;;;;4970814;28;20461;-75
2021/11/21 02:46:55;;;;;;;37.23;30.40;;;7.30;1.00;8.60;100281.00;;;;4959523;28;20862;-76
2021/11/21 02:49:24;;;;;;;40.73;32.00;;;7.40;1.00;8.60;100277.00;;;;4970393;28;20518;-75
2021/11/21 02:51:53;;;;;;;44.43;32.90;;;7.40;1.00;8.40;100251.00;;;;4972552;28;21039;-77
2021/11/21 02:54:23;;;;;;;43.13;34.67;;;7.40;1.00;8.60;100271.00;;;;4973589;28;20992;-76
2021/11/21 02:56:51;;;;;;;44.50;33.77;;;7.30;1.00;8.50;100281.00;;;;4971199;28;20488;-76
2021/11/21 02:59:27;;;;;;;40.20;32.40;;;7.40;1.00;8.50;100258.00;;;;4963679;28;20876;-76
2021/11/21 03:01:56;;;;;;;39.20;27.87;;;7.40;1.00;8.40;100256.00;;;;4975744;28;20447;-76
2021/11/21 03:04:25;;;;;;;40.77;31.57;;;7.30;1.00;8.40;100270.00;;;;4974041;28;20447;-75
2021/11/21 03:06:53;;;;;;;43.90;33.17;;;7.30;1.00;8.40;100269.00;;;;4974858;28;20461;-76
2021/11/21 03:09:24;;;;;;;42.70;32.40;;;7.30;1.00;8.30;100238.00;;;;4974109;28;20553;-76
2021/11/21 03:11:54;;;;;;;36.93;30.70;;;7.30;1.00;8.50;100224.00;;;;4975689;28;20878;-75
2021/11/21 03:14:23;;;;;;;35.67;28.67;;;7.30;1.00;8.40;100250.00;;;;4974835;28;20971;-76
2021/11/21 03:16:52;;;;;;;37.40;30.13;;;7.30;1.00;8.40;100252.00;;;;4955517;29;20957;-76
2021/11/21 03:19:22;;;;;;;39.10;31.40;;;7.30;1.00;8.50;100245.00;;;;4971171;28;20563;-76
2021/11/21 03:21:50;;;;;;;41.63;30.20;;;7.30;1.00;8.50;100236.00;;;;4955216;29;20456;-76
2021/11/21 03:24:20;;;;;;;40.27;31.03;;;7.30;1.00;8.50;100240.00;;;;4973794;28;20466;-76
2021/11/21 03:26:50;;;;;;;38.13;30.20;;;7.30;1.00;8.50;100243.00;;;;4984165;28;20920;-76
2021/11/21 03:29:19;;;;;;;36.60;29.50;;;7.30;1.00;8.40;100229.00;;;;4993109;28;20451;-79
2021/11/21 03:31:48;;;;;;;41.07;30.30;;;7.20;1.00;8.20;100195.00;;;;4989682;28;20873;-76
2021/11/21 03:34:17;;;;;;;33.70;27.60;;;7.20;1.00;8.30;100209.00;;;;4970770;28;20522;-75
2021/11/21 03:36:46;;;;;;;39.93;29.97;;;7.20;1.00;8.20;100221.00;;;;4973663;28;21029;-77
2021/11/21 03:39:16;;;;;;;35.77;28.40;;;7.20;1.00;8.40;100226.00;;;;4963826;28;20476;-76
2021/11/21 03:41:45;;;;;;;35.57;28.60;;;7.20;1.00;8.30;100221.00;;;;4955773;28;20527;-79
2021/11/21 03:44:15;;;;;;;35.20;27.93;;;7.20;1.00;8.40;100226.00;;;;4967567;28;20479;-77
2021/11/21 03:46:44;;;;;;;34.90;28.90;;;7.20;1.00;8.30;100211.00;;;;4973032;28;20487;-77
2021/11/21 03:49:13;;;;;;;33.77;26.40;;;7.20;1.00;8.40;100210.00;;;;4969300;28;20886;-77
2021/11/21 03:51:42;;;;;;;31.80;25.50;;;7.20;1.00;8.30;100199.00;;;;4968725;28;20456;-75
2021/11/21 03:54:11;;;;;;;31.13;25.33;;;7.20;1.00;8.30;100200.00;;;;4967992;28;20457;-78
2021/11/21 03:56:40;;;;;;;30.60;24.60;;;7.20;1.00;8.30;100174.00;;;;4955755;28;20497;-76
2021/11/21 03:59:09;;;;;;;33.43;25.60;;;7.10;1.00;8.30;100190.00;;;;4965923;28;20479;-75
2021/11/21 04:01:39;;;;;;;31.63;25.23;;;7.20;1.00;8.30;100206.00;;;;4986851;28;20468;-75
2021/11/21 04:04:12;;;;;;;29.10;23.80;;;7.20;1.00;8.30;100060.00;;;;4970850;28;20968;-77
2021/11/21 04:06:41;;;;;;;32.50;24.70;;;7.20;1.00;8.30;100210.00;;;;4973712;28;20475;-76
2021/11/21 04:09:10;;;;;;;32.73;25.90;;;7.10;1.00;8.40;100203.00;;;;4972130;28;20839;-78
2021/11/21 04:11:39;;;;;;;27.50;22.97;;;7.20;1.00;8.50;100192.00;;;;4970063;28;20459;-74
2021/11/21 04:14:08;;;;;;;26.07;22.40;;;7.30;1.00;8.30;100163.00;;;;4964705;28;20866;-78
2021/11/21 04:16:36;;;;;;;31.90;25.00;;;7.30;1.00;8.60;100175.00;;;;4970424;28;20471;-76
2021/11/21 04:19:08;;;;;;;27.60;22.73;;;7.30;1.00;8.50;100179.00;;;;4962356;28;20475;-75
2021/11/21 04:21:38;;;;;;;30.93;24.90;;;7.30;1.00;8.60;100198.00;;;;4966605;28;20506;-75
2021/11/21 04:24:12;;;;;;;30.33;24.30;;;7.30;1.00;8.70;100075.00;;;;4973170;28;20459;-76
2021/11/21 04:26:44;;;;;;;29.50;24.57;;;7.30;1.00;8.70;100173.00;;;;4960420;28;20558;-75
2021/11/21 04:29:12;;;;;;;29.33;23.50;;;7.40;1.00;8.50;100177.00;;;;4963033;28;20538;-76
2021/11/21 04:31:41;;;;;;;27.73;21.83;;;7.30;1.00;8.50;100164.00;;;;4978988;28;20488;-77
2021/11/21 04:34:11;;;;;;;30.10;23.73;;;7.30;1.00;8.50;100059.00;;;;4956997;28;20503;-75
2021/11/21 04:36:40;;;;;;;33.57;24.50;;;7.30;1.00;8.50;100181.00;;;;4956451;28;20468;-76
2021/11/21 04:39:08;;;;;;;31.63;24.23;;;7.30;1.00;8.50;100170.00;;;;4972640;28;20537;-76
2021/11/21 04:41:37;;;;;;;29.70;22.47;;;7.30;1.00;8.40;100152.00;;;;4973730;28;20448;-76
2021/11/21 04:44:06;;;;;;;30.63;23.37;;;7.30;1.00;8.40;100162.00;;;;4982586;28;20464;-76
2021/11/21 04:46:35;;;;;;;31.30;24.50;;;7.30;1.00;8.40;100164.00;;;;4964172;28;20602;-75
2021/11/21 04:49:04;;;;;;;30.20;22.93;;;7.20;1.00;8.50;100155.00;;;;4972380;28;20883;-78
2021/11/21 04:51:34;;;;;;;27.87;21.70;;;7.20;1.00;8.50;100173.00;;;;4972289;28;20455;-77
2021/11/21 04:54:04;;;;;;;28.03;21.50;;;7.30;1.00;8.40;100162.00;;;;4972823;28;20452;-77
2021/11/21 04:56:32;;;;;;;30.10;23.30;;;7.20;1.00;8.30;100171.00;;;;4983653;28;20471;-77
2021/11/21 04:59:01;;;;;;;28.50;20.83;;;7.20;1.00;8.30;100165.00;;;;4976120;28;20473;-77
2021/11/21 05:01:30;;;;;;;34.60;25.03;;;7.20;1.00;8.30;100174.00;;;;4988839;28;20447;-74
2021/11/21 05:03:59;;;;;;;31.03;24.33;;;7.10;1.00;8.30;100150.00;;;;4975502;28;20977;-76
2021/11/21 05:06:28;;;;;;;30.87;23.77;;;7.10;1.00;8.30;100166.00;;;;4967522;28;20522;-77
2021/11/21 05:08:58;;;;;;;30.50;24.23;;;7.10;1.00;8.40;100168.00;;;;4969163;28;20459;-77
2021/11/21 05:11:27;;;;;;;30.60;23.20;;;7.20;1.00;8.30;100135.00;;;;4969067;28;20538;-76
2021/11/21 05:13:56;;;;;;;30.10;22.93;;;7.20;1.00;8.60;100166.00;;;;4972346;28;20447;-77
2021/11/21 05:16:25;;;;;;;29.07;23.67;;;7.30;1.00;8.50;100156.00;;;;4957291;28;20575;-81
2021/11/21 05:18:54;;;;;;;30.23;22.57;;;7.30;1.00;8.50;100148.00;;;;4967918;28;20498;-78
2021/11/21 05:21:22;;;;;;;31.53;23.80;;;7.30;1.00;8.50;100177.00;;;;4959687;28;20464;-77
2021/11/21 05:23:51;;;;;;;29.73;22.30;;;7.20;1.00;8.50;100130.00;;;;4988098;28;20459;-76
2021/11/21 05:26:23;;;;;;;27.20;22.20;;;7.30;1.00;8.50;100182.00;;;;4965763;28;20861;-76
2021/11/21 05:28:55;;;;;;;29.43;21.00;;;7.30;1.00;8.30;100121.00;;;;4972776;28;20468;-75
2021/11/21 05:31:25;;;;;;;29.50;21.77;;;7.30;1.00;8.50;100164.00;;;;4973561;28;20448;-76
2021/11/21 05:33:54;;;;;;;27.77;21.30;;;7.30;1.00;8.60;100160.00;;;;4972938;28;20467;-76
2021/11/21 05:36:23;;;;;;;31.73;22.97;;;7.30;1.00;8.50;100129.00;;;;4970136;28;20482;-78
2021/11/21 05:38:52;;;;;;;26.90;21.43;;;7.30;1.00;8.70;100181.00;;;;4978635;28;20455;-77
2021/11/21 05:41:27;;;;;;;29.43;22.27;;;7.40;1.00;8.80;100172.00;;;;4962309;28;20432;-78
2021/11/21 05:43:55;;;;;;;26.10;21.20;;;7.40;1.00;8.70;100172.00;;;;4975552;28;20558;-76
2021/11/21 05:46:25;;;;;;;27.70;21.50;;;7.40;1.00;8.70;100117.00;;;;4971938;28;20499;-76
2021/11/21 05:48:54;;;;;;;26.87;20.27;;;7.40;1.00;8.70;100176.00;;;;4979632;28;20490;-76
2021/11/21 05:51:23;;;;;;;27.70;22.00;;;7.40;1.00;8.60;100133.00;;;;4972478;28;20467;-75
2021/11/21 05:53:52;;;;;;;28.20;22.13;;;7.30;1.00;8.60;100162.00;;;;4979917;28;20513;-76
2021/11/21 05:56:21;;;;;;;27.57;20.93;;;7.30;1.00;8.60;100147.00;;;;4981385;28;20476;-76
2021/11/21 05:58:52;;;;;;;28.00;21.67;;;7.30;1.00;8.70;100087.00;;;;4996737;28;20451;-77
2021/11/21 06:01:21;;;;;;;30.00;22.53;;;7.30;1.00;8.70;100139.00;;;;4981288;28;20455;-75
2021/11/21 06:03:53;;;;;;;29.53;22.67;;;7.30;1.00;8.80;100112.00;;;;4964126;28;20450;-76
2021/11/21 06:06:22;;;;;;;31.13;22.40;;;7.40;1.00;8.60;100129.00;;;;4974759;28;20483;-75
2021/11/21 06:08:51;;;;;;;29.20;22.47;;;7.40;1.00;8.60;100126.00;;;;4968749;28;20451;-75
2021/11/21 06:11:20;;;;;;;24.53;20.80;;;7.40;1.00;8.50;100135.00;;;;4968879;28;20543;-74
2021/11/21 06:13:49;;;;;;;28.43;21.93;;;7.30;1.00;8.60;100161.00;;;;4968309;28;20456;-78
2021/11/21 06:16:19;;;;;;;31.60;23.57;;;7.30;1.00;8.30;100136.00;;;;4977377;28;20546;-77
2021/11/21 06:18:48;;;;;;;29.57;22.60;;;7.30;1.00;8.50;100175.00;;;;4974772;28;20502;-75
2021/11/21 06:21:17;;;;;;;29.53;21.57;;;7.20;1.00;8.50;100143.00;;;;4972510;28;20535;-75
2021/11/21 06:23:46;;;;;;;32.10;22.43;;;7.20;1.00;8.50;100115.00;;;;4959558;28;20491;-76
2021/11/21 06:26:15;;;;;;;32.93;23.07;;;7.20;1.00;8.40;100142.00;;;;4969333;28;20475;-78
2021/11/21 06:28:44;;;;;;;33.00;23.50;;;7.20;1.00;8.40;100139.00;;;;4975351;28;20550;-76
2021/11/21 06:31:13;;;;;;;33.07;24.37;;;7.20;1.00;8.40;100143.00;;;;4974923;28;20468;-77
2021/11/21 06:33:43;;;;;;;35.60;23.67;;;7.20;1.00;8.10;100122.00;;;;4992469;28;20451;-76
2021/11/21 06:36:12;;;;;;;35.10;24.50;;;7.20;1.00;8.40;100128.00;;;;4967724;28;20509;-77
2021/11/21 06:38:42;;;;;;;32.90;23.77;;;7.20;1.00;8.40;100144.00;;;;5007404;28;20455;-75
2021/11/21 06:41:10;;;;;;;35.03;25.97;;;7.20;1.00;8.40;100137.00;;;;4987621;28;20803;-76
2021/11/21 06:43:39;;;;;;;34.17;25.70;;;7.10;1.00;8.40;100139.00;;;;4979922;28;20444;-75
2021/11/21 06:46:07;;;;;;;39.40;26.00;;;7.20;1.00;8.40;100119.00;;;;4976428;28;20518;-77
2021/11/21 06:48:36;;;;;;;34.20;24.80;;;7.20;1.00;8.50;100133.00;;;;4976466;28;20952;-76
2021/11/21 06:51:06;;;;;;;33.10;24.27;;;7.20;1.00;8.50;100134.00;;;;4964597;28;20466;-75
2021/11/21 06:53:35;;;;;;;34.60;24.87;;;7.20;1.00;8.40;100148.00;;;;4971126;28;20466;-76
2021/11/21 06:56:04;;;;;;;32.47;24.00;;;7.20;1.00;8.50;100137.00;;;;4959667;28;20488;-79
2021/11/21 06:58:32;;;;;;;35.00;24.30;;;7.20;1.00;8.50;100138.00;;;;4963879;28;20462;-79
2021/11/21 07:01:00;;;;;;;33.90;25.90;;;7.20;1.00;8.40;100143.00;;;;4968222;28;21068;-79
2021/11/21 07:03:29;;;;;;;36.00;26.70;;;7.20;1.00;8.50;100131.00;;;;4974024;28;20490;-79
2021/11/21 07:05:57;;;;;;;29.63;22.57;;;7.20;1.00;8.50;100123.00;;;;4974223;28;20463;-79
2021/11/21 07:08:27;;;;;;;33.27;25.23;;;7.20;1.00;8.40;100119.00;;;;4968016;28;20459;-78
2021/11/21 07:10:55;;;;;;;33.70;25.17;;;7.20;1.00;8.40;100110.00;;;;4970854;28;20823;-79
2021/11/21 07:13:23;;;;;;;31.50;24.43;;;7.30;1.00;8.40;100125.00;;;;4972951;28;20486;-78
2021/11/21 07:15:52;;;;;;;29.63;23.30;;;7.20;1.00;8.40;100099.00;;;;4974231;28;20467;-76
2021/11/21 07:18:21;;;;;;;30.10;25.20;;;7.20;1.00;8.40;100116.00;;;;4975695;28;20483;-76
2021/11/21 07:20:49;;;;;;;31.90;23.40;;;7.20;1.00;8.40;100118.00;;;;4965199;28;20475;-76
2021/11/21 07:23:20;;;;;;;28.60;22.20;;;7.30;1.00;8.50;100121.00;;;;4973772;28;21269;-77
2021/11/21 07:25:49;;;;;;;28.47;22.97;;;7.20;1.00;8.50;100121.00;;;;4973558;28;20539;-79
2021/11/21 07:28:18;;;;;;;27.30;21.73;;;7.30;1.00;8.50;100020.00;;;;4991184;28;20456;-75
2021/11/21 07:30:46;;;;;;;27.87;22.53;;;7.30;1.00;8.50;100120.00;;;;4993313;28;20460;-77
2021/11/21 07:33:15;;;;;;;28.80;22.33;;;7.30;1.00;8.50;100122.00;;;;4986834;28;20499;-78
2021/11/21 07:35:43;;;;;;;27.20;20.93;;;7.30;1.00;8.50;100111.00;;;;4982106;28;20473;-79
2021/11/21 07:38:12;;;;;;;26.50;20.87;;;7.30;1.00;8.50;100130.00;;;;4989912;28;20479;-78
2021/11/21 07:40:41;;;;;;;25.07;20.33;;;7.30;1.00;8.60;100112.00;;;;4984134;28;20503;-77
2021/11/21 07:43:10;;;;;;;29.27;20.83;;;7.40;1.00;8.70;100107.00;;;;4984069;28;20436;-79
2021/11/21 07:45:39;;;;;;;26.30;20.80;;;7.40;1.00;8.80;100118.00;;;;4984276;28;20492;-76
2021/11/21 07:48:07;;;;;;;24.77;19.90;;;7.50;1.00;8.50;100116.00;;;;4984758;28;20562;-77
2021/11/21 07:50:36;;;;;;;25.20;20.10;;;7.50;1.00;8.70;100118.00;;;;4969347;28;20464;-75
2021/11/21 07:53:04;;;;;;;20.40;16.80;;;7.50;1.00;8.40;100133.00;;;;4972237;28;20464;-77
2021/11/21 07:55:33;;;;;;;21.00;18.30;;;7.50;1.00;8.40;100121.00;;;;4978610;28;20479;-77
2021/11/21 07:58:02;;;;;;;24.00;20.13;;;7.40;1.00;8.60;100139.00;;;;4980284;28;20510;-78
2021/11/21 08:00:31;;;;;;;24.53;19.10;;;7.50;1.00;8.70;100120.00;;;;4994611;28;20507;-78
2021/11/21 08:03:01;;;;;;;21.47;18.33;;;7.50;1.00;8.70;100098.00;;;;4992475;28;20452;-78
2021/11/21 08:05:29;;;;;;;22.27;18.47;;;7.50;1.00;8.70;100050.00;;;;5006122;28;20668;-77
2021/11/21 08:07:58;;;;;;;23.73;17.20;;;7.50;1.00;8.30;100101.00;;;;4979736;28;20484;-77
2021/11/21 08:10:26;;;;;;;23.13;18.33;;;7.50;1.00;8.70;100110.00;;;;4977936;28;21039;-77
2021/11/21 08:12:55;;;;;;;22.87;18.77;;;7.50;1.00;8.60;100112.00;;;;4979131;28;20882;-77
2021/11/21 08:15:23;;;;;;;22.57;18.33;;;7.50;1.00;8.50;100110.00;;;;4969106;28;20483;-76
2021/11/21 08:17:53;;;;;;;21.53;17.80;;;7.50;1.00;8.80;100110.00;;;;4968259;28;20549;-78
2021/11/21 08:20:22;;;;;;;21.13;16.57;;;7.50;1.00;8.80;100105.00;;;;4972638;28;20461;-78
2021/11/21 08:22:54;;;;;;;22.27;16.40;;;7.60;1.00;8.90;100112.00;;;;4974545;28;20459;-79
2021/11/21 08:25:23;;;;;;;19.77;16.33;;;7.60;1.00;9.00;100113.00;;;;4972457;28;20539;-78
2021/11/21 08:27:51;;;;;;;19.83;15.87;;;7.70;1.00;8.90;100108.00;;;;4981047;28;20855;-78
2021/11/21 08:30:20;;;;;;;20.77;17.30;;;7.70;1.00;8.80;100100.00;;;;4976205;28;20453;-77
2021/11/21 08:32:50;;;;;;;19.60;17.43;;;7.70;1.00;8.90;100109.00;;;;4978168;28;20463;-77
2021/11/21 08:35:20;;;;;;;19.97;16.43;;;7.60;1.00;9.00;100101.00;;;;4976299;28;20459;-78
2021/11/21 08:37:49;;;;;;;20.37;16.90;;;7.70;1.00;9.10;100111.00;;;;4974793;28;21041;-78
2021/11/21 08:40:18;;;;;;;19.57;16.50;;;7.80;1.00;9.10;100115.00;;;;4972909;28;20460;-79
2021/11/21 08:42:46;;;;;;;21.07;17.13;;;7.80;1.00;9.10;100088.00;;;;4966099;28;20471;-78
2021/11/21 08:45:15;;;;;;;21.43;16.67;;;7.80;1.00;9.20;100109.00;;;;4992943;28;20464;-77
2021/11/21 08:47:44;;;;;;;19.97;15.77;;;7.80;1.00;9.30;100113.00;;;;4974489;28;20510;-76
2021/11/21 08:50:12;;;;;;;18.20;15.73;;;7.90;1.00;9.30;100044.00;;;;4978172;28;20466;-79
2021/11/21 08:52:44;;;;;;;19.27;15.57;;;7.90;1.00;9.20;100125.00;;;;4988455;28;20443;-76
2021/11/21 08:55:13;;;;;;;18.47;15.50;;;7.90;1.00;9.10;100102.00;;;;4992089;28;20463;-77
2021/11/21 08:57:41;;;;;;;18.53;15.23;;;7.90;1.00;9.20;100122.00;;;;4987228;28;22247;-76
2021/11/21 09:00:11;;;;;;;19.60;16.30;;;8.00;1.00;9.30;100097.00;;;;4965684;28;20468;-79
2021/11/21 09:02:40;;;;;;;19.60;15.87;;;8.00;1.00;9.30;100123.00;;;;4973707;28;20922;-79
2021/11/21 09:05:10;;;;;;;16.97;15.20;;;7.90;1.00;9.50;100131.00;;;;4973256;28;20468;-79
2021/11/21 09:07:42;;;;;;;17.90;14.77;;;8.10;1.00;9.50;100105.00;;;;4965345;28;20483;-80
2021/11/21 09:10:16;;;;;;;18.77;15.93;;;8.10;1.00;9.30;99885.00;;;;4981882;28;20459;-79
2021/11/21 09:12:45;;;;;;;20.07;15.50;;;8.10;1.00;9.40;100116.00;;;;4991171;28;21035;-77
2021/11/21 09:15:21;;;;;;;18.20;15.53;;;8.00;1.00;9.10;100112.00;;;;4980418;28;20537;-78
2021/11/21 09:17:52;;;;;;;18.97;16.17;;;7.90;1.00;9.10;100109.00;;;;4988647;28;20662;-76
2021/11/21 09:20:23;;;;;;;17.07;14.63;;;7.80;1.00;9.10;100112.00;;;;4977889;28;20522;-77
2021/11/21 09:22:52;;;;;;;17.27;14.67;;;7.80;1.00;8.90;100059.00;;;;4984443;28;20520;-77
2021/11/21 09:25:24;;;;;;;20.60;15.87;;;7.80;1.00;9.00;100136.00;;;;4993017;28;20443;-77
2021/11/21 09:27:52;;;;;;;19.63;15.90;;;7.80;1.00;8.90;100115.00;;;;4994726;28;20515;-78
2021/11/21 09:30:22;;;;;;;19.33;16.10;;;7.70;1.00;9.00;100125.00;;;;4990947;28;20464;-79
2021/11/21 09:32:51;;;;;;;18.93;16.20;;;7.80;1.00;9.00;100101.00;;;;4980622;28;20863;-78
2021/11/21 09:35:21;;;;;;;19.77;15.77;;;7.80;1.00;8.90;100113.00;;;;4977742;28;20486;-78
2021/11/21 09:37:50;;;;;;;19.87;16.53;;;7.80;1.00;9.10;100105.00;;;;4976161;28;20475;-77
2021/11/21 09:40:18;;;;;;;17.67;15.40;;;7.80;1.00;9.10;100116.00;;;;4977042;28;21177;-78
2021/11/21 09:42:48;;;;;;;21.20;16.73;;;7.80;1.00;9.20;100008.00;;;;4975309;28;20558;-78
2021/11/21 09:45:19;;;;;;;19.87;17.53;;;7.80;1.00;9.20;100112.00;;;;4979955;28;20456;-77
2021/11/21 09:47:53;;;;;;;17.90;15.50;;;7.90;1.00;9.30;100114.00;;;;5077172;23;20599;-78
2021/11/21 09:50:24;;;;;;;20.30;16.50;;;8.00;1.00;9.30;100048.00;;;;5015571;28;20449;-77
2021/11/21 09:52:53;;;;;;;18.37;15.97;;;8.00;1.00;9.60;100114.00;;;;5021881;28;20528;-78
2021/11/21 09:55:22;;;;;;;18.13;15.60;;;8.20;1.00;9.40;100097.00;;;;5009991;28;20465;-77
2021/11/21 09:57:53;;;;;;;18.17;15.37;;;8.20;1.00;9.40;100086.00;;;;5002692;28;20555;-78
2021/11/21 10:00:25;;;;;;;17.30;14.63;;;8.20;1.00;9.50;100122.00;;;;5020284;28;20461;-79
2021/11/21 10:03:01;;;;;;;16.50;14.80;;;8.20;1.00;9.70;100107.00;;;;5023763;28;20466;-79
2021/11/21 10:05:32;;;;;;;17.07;15.23;;;8.30;1.00;9.60;100101.00;;;;5006856;28;20458;-79
2021/11/21 10:08:08;;;;;;;18.07;15.70;;;8.30;1.00;9.60;100036.00;;;;5009657;28;20975;-79
2021/11/21 10:10:43;;;;;;;17.63;15.23;;;8.30;1.00;9.30;100085.00;;;;5020573;28;20453;-76
2021/11/21 10:13:36;;;;;;;17.50;15.27;;;8.30;1.00;9.30;100073.00;;;;5017896;28;20458;-75
2021/11/21 10:16:30;;;;;;;19.90;15.63;;;8.20;1.00;9.40;100005.00;;;;5015811;28;20564;-78
2021/11/21 10:19:02;;;;;;;15.80;14.10;;;8.20;1.00;9.50;100079.00;;;;5013708;28;20468;-80
2021/11/21 10:21:33;;;;;;;18.23;16.07;;;8.10;1.00;9.50;100068.00;;;;5021297;28;20465;-78
2021/11/21 10:24:21;;;;;;;16.40;13.73;;;8.10;1.00;9.50;100068.00;;;;5019067;28;20997;-78
2021/11/21 10:27:05;;;;;;;15.80;13.77;;;8.20;1.00;9.50;100053.00;;;;5018665;28;20500;-77
2021/11/21 10:29:40;;;;;;;16.07;13.63;;;8.30;1.00;9.50;100062.00;;;;5017678;28;20449;-78
2021/11/21 10:32:18;;;;;;;15.57;12.90;;;8.30;1.00;9.20;99991.00;;;;5022752;28;20461;-77
2021/11/21 10:34:51;;;;;;;14.87;12.83;;;8.30;1.00;9.80;100058.00;;;;5026851;28;20479;-78
2021/11/21 10:37:20;;;;;;;13.30;11.50;;;8.50;1.00;9.80;99977.00;;;;5020629;28;20553;-77
2021/11/21 10:40:09;;;;;;;15.03;12.50;;;8.60;1.00;10.00;100052.00;;;;5021943;28;20460;-79
2021/11/21 10:42:39;;;;;;;13.20;11.60;;;8.70;1.00;10.00;99996.00;;;;5027316;28;20474;-77
2021/11/21 10:45:12;;;;;;;14.23;12.43;;;8.80;1.00;9.80;100047.00;;;;5021041;28;20484;-78
2021/11/21 10:47:46;;;;;;;13.40;11.43;;;8.80;1.00;10.20;100037.00;;;;5028328;28;20495;-78
2021/11/21 10:50:28;;;;;;;11.63;10.43;;;8.80;1.00;10.30;100042.00;;;;5019083;28;20462;-77
2021/11/21 10:52:58;;;;;;;13.67;10.57;;;8.80;1.00;10.10;100027.00;;;;5022947;28;20500;-78
2021/11/21 10:55:27;;;;;;;12.30;10.90;;;8.80;1.00;10.10;100024.00;;;;5006742;28;20466;-77
2021/11/21 10:57:57;;;;;;;11.50;9.90;;;8.80;1.00;10.00;100040.00;;;;5011890;28;20502;-78
2021/11/21 11:00:27;;;;;;;12.97;10.67;;;8.70;1.00;9.80;100045.00;;;;5013428;28;20549;-77
2021/11/21 11:02:56;;;;;;;12.40;10.57;;;8.70;1.00;9.60;100040.00;;;;5017003;28;20466;-78
2021/11/21 11:05:27;;;;;;;17.67;13.20;;;8.60;1.00;9.80;100030.00;;;;5006356;28;20558;-78
2021/11/21 11:07:57;;;;;;;12.80;10.90;;;8.50;1.00;9.90;100008.00;;;;5014926;28;20474;-78